createdAt,value
2023-12-14T00:01:30.460Z,7.00
2023-12-14T00:03:57.134Z,7.00
2023-12-14T00:06:23.995Z,6.88
2023-12-14T00:08:51.013Z,7.65
2023-12-14T00:11:17.650Z,7.13
2023-12-14T00:13:44.284Z,7.55
2023-12-14T00:16:10.888Z,6.63
2023-12-14T00:18:37.753Z,6.93
2023-12-14T00:21:04.892Z,6.95
2023-12-14T00:23:31.425Z,6.72
2023-12-14T00:25:58.254Z,6.32
2023-12-14T00:28:27.613Z,7.13
2023-12-14T00:30:55.784Z,7.47
2023-12-14T00:33:22.371Z,6.13
2023-12-14T00:35:48.971Z,6.47
2023-12-14T00:38:15.599Z,7.22
2023-12-14T00:40:42.273Z,7.20
2023-12-14T00:43:08.896Z,7.20
2023-12-14T00:45:35.479Z,6.90
2023-12-14T00:48:02.195Z,6.63
2023-12-14T00:50:28.757Z,6.70
2023-12-14T00:52:55.275Z,6.47
2023-12-14T00:55:21.838Z,6.05
2023-12-14T00:57:48.424Z,6.57
2023-12-14T01:00:15.439Z,6.38
2023-12-14T01:02:42.041Z,5.72
2023-12-14T01:05:08.948Z,6.53
2023-12-14T01:07:35.585Z,6.93
2023-12-14T01:10:02.445Z,6.22
2023-12-14T01:12:28.989Z,5.85
2023-12-14T01:14:55.556Z,6.68
2023-12-14T01:17:22.148Z,5.43
2023-12-14T01:19:48.684Z,6.00
2023-12-14T01:22:16.266Z,6.53
2023-12-14T01:24:43.324Z,6.75
2023-12-14T01:27:11.222Z,5.97
2023-12-14T01:29:38.355Z,6.18
2023-12-14T01:32:05.334Z,6.22
2023-12-14T01:34:31.863Z,6.30
2023-12-14T01:36:58.460Z,5.10
2023-12-14T01:39:24.949Z,5.82
2023-12-14T01:41:51.496Z,5.80
2023-12-14T01:44:18.194Z,7.20
2023-12-14T01:46:44.753Z,6.45
2023-12-14T01:49:11.433Z,5.70
2023-12-14T01:51:37.959Z,5.70
2023-12-14T01:54:04.536Z,5.55
2023-12-14T01:56:32.121Z,6.50
2023-12-14T01:58:58.784Z,6.38
2023-12-14T02:01:43.220Z,6.55
2023-12-14T02:04:10.838Z,5.30
2023-12-14T02:06:37.792Z,6.03
2023-12-14T02:09:05.044Z,6.68
2023-12-14T02:11:31.786Z,5.95
2023-12-14T02:13:58.487Z,5.55
2023-12-14T02:16:25.091Z,6.10
2023-12-14T02:18:51.917Z,5.38
2023-12-14T02:21:19.771Z,6.50
2023-12-14T02:23:46.829Z,5.53
2023-12-14T02:26:14.129Z,5.55
2023-12-14T02:28:41.287Z,5.65
2023-12-14T02:31:08.166Z,6.10
2023-12-14T02:33:34.821Z,5.78
2023-12-14T02:36:01.404Z,5.15
2023-12-14T02:38:28.117Z,5.78
2023-12-14T02:40:55.759Z,5.68
2023-12-14T02:43:24.509Z,6.45
2023-12-14T02:45:51.037Z,6.15
2023-12-14T02:48:17.862Z,5.25
2023-12-14T02:50:44.458Z,5.93
2023-12-14T02:53:11.079Z,5.72
2023-12-14T02:55:37.864Z,5.53
2023-12-14T02:58:04.713Z,6.97
2023-12-14T03:00:31.184Z,5.93
2023-12-14T03:02:57.832Z,5.35
2023-12-14T03:05:24.449Z,5.57
2023-12-14T03:07:51.053Z,5.32
2023-12-14T03:10:17.616Z,5.50
2023-12-14T03:12:44.134Z,5.53
2023-12-14T03:15:10.913Z,5.50
2023-12-14T03:17:37.572Z,5.47
2023-12-14T03:20:06.505Z,5.35
2023-12-14T03:22:33.785Z,5.95
2023-12-14T03:25:00.579Z,5.13
2023-12-14T03:27:27.129Z,5.22
2023-12-14T03:29:53.673Z,5.57
2023-12-14T03:32:20.516Z,5.70
2023-12-14T03:34:47.126Z,5.53
2023-12-14T03:37:13.733Z,5.35
2023-12-14T03:39:40.316Z,5.70
2023-12-14T03:42:06.875Z,5.63
2023-12-14T03:44:33.618Z,5.57
2023-12-14T03:47:03.422Z,6.47
2023-12-14T03:49:30.142Z,6.10
2023-12-14T03:51:56.813Z,5.18
2023-12-14T03:54:23.319Z,6.40
2023-12-14T03:56:49.946Z,5.63
2023-12-14T03:59:16.540Z,5.88
2023-12-14T04:01:43.357Z,6.32
2023-12-14T04:04:10.174Z,6.32
2023-12-14T04:06:36.769Z,6.35
2023-12-14T04:09:03.571Z,6.28
2023-12-14T04:11:30.084Z,6.22
2023-12-14T04:13:56.887Z,5.97
2023-12-14T04:16:26.236Z,7.00
2023-12-14T04:18:53.389Z,6.38
2023-12-14T04:21:20.065Z,6.00
2023-12-14T04:23:46.931Z,7.43
2023-12-14T04:26:15.261Z,6.70
2023-12-14T04:28:44.756Z,6.03
2023-12-14T04:31:12.209Z,6.05
2023-12-14T04:33:38.823Z,6.28
2023-12-14T04:36:05.747Z,6.45
2023-12-14T04:38:32.263Z,6.07
2023-12-14T04:40:59.060Z,6.63
2023-12-14T04:43:25.573Z,7.30
2023-12-14T04:45:52.214Z,7.15
2023-12-14T04:48:18.795Z,6.18
2023-12-14T04:50:45.404Z,6.82
2023-12-14T04:53:12.035Z,6.97
2023-12-14T04:55:38.725Z,6.53
2023-12-14T04:58:05.306Z,8.18
2023-12-14T05:00:31.923Z,7.60
2023-12-14T05:02:58.439Z,7.13
2023-12-14T05:05:25.016Z,8.73
2023-12-14T05:07:51.518Z,8.18
2023-12-14T05:10:18.359Z,8.77
2023-12-14T05:12:45.125Z,7.80
2023-12-14T05:15:12.462Z,7.82
2023-12-14T05:17:39.048Z,7.55
2023-12-14T05:20:09.571Z,8.57
2023-12-14T05:22:36.629Z,8.35
2023-12-14T05:25:05.398Z,8.48
2023-12-14T05:27:31.887Z,8.43
2023-12-14T05:29:58.722Z,7.95
2023-12-14T05:32:25.208Z,7.50
2023-12-14T05:34:51.785Z,8.02
2023-12-14T05:37:18.383Z,8.13
2023-12-14T05:39:46.395Z,8.07
2023-12-14T05:42:13.139Z,7.50
2023-12-14T05:44:39.634Z,8.65
2023-12-14T05:47:06.281Z,7.57
2023-12-14T05:49:32.902Z,7.78
2023-12-14T05:52:01.200Z,8.25
2023-12-14T05:54:27.774Z,8.77
2023-12-14T05:56:54.439Z,8.55
2023-12-14T05:59:21.143Z,16.92
2023-12-14T06:01:48.786Z,9.93
2023-12-14T06:04:15.632Z,9.32
2023-12-14T06:06:42.271Z,8.63
2023-12-14T06:09:08.845Z,9.25
2023-12-14T06:11:35.440Z,8.35
2023-12-14T06:14:02.221Z,8.50
2023-12-14T06:16:28.820Z,8.57
2023-12-14T06:18:55.457Z,8.70
2023-12-14T06:21:22.070Z,9.52
2023-12-14T06:23:51.913Z,8.65
2023-12-14T06:26:18.773Z,8.80
2023-12-14T06:28:45.375Z,9.75
2023-12-14T06:31:16.972Z,9.82
2023-12-14T06:33:43.628Z,9.32
2023-12-14T06:36:10.487Z,9.70
2023-12-14T06:38:41.808Z,9.10
2023-12-14T06:41:24.998Z,10.63
2023-12-14T06:43:53.039Z,9.20
2023-12-14T06:46:20.229Z,9.77
2023-12-14T06:48:47.167Z,8.45
2023-12-14T06:51:14.049Z,10.02
2023-12-14T06:53:43.797Z,9.20
2023-12-14T06:56:11.884Z,10.60
2023-12-14T06:58:42.106Z,10.43
2023-12-14T07:01:12.755Z,9.90
2023-12-14T07:03:45.491Z,8.70
2023-12-14T07:06:16.581Z,8.68
2023-12-14T07:08:43.915Z,9.48
2023-12-14T07:11:11.296Z,9.13
2023-12-14T07:13:38.411Z,9.43
2023-12-14T07:16:08.865Z,7.78
2023-12-14T07:18:40.262Z,10.10
2023-12-14T07:21:07.740Z,9.05
2023-12-14T07:23:35.365Z,10.52
2023-12-14T07:26:03.822Z,8.95
2023-12-14T07:28:31.978Z,8.85
2023-12-14T07:30:58.687Z,8.68
2023-12-14T07:33:25.498Z,9.85
2023-12-14T07:35:52.224Z,8.60
2023-12-14T07:38:18.815Z,9.65
2023-12-14T07:40:46.277Z,9.13
2023-12-14T07:43:12.889Z,10.48
2023-12-14T07:45:41.657Z,9.75
2023-12-14T07:48:08.385Z,9.20
2023-12-14T07:50:35.091Z,10.23
2023-12-14T07:53:01.796Z,10.35
2023-12-14T07:55:28.959Z,10.30
2023-12-14T07:57:55.549Z,9.52
2023-12-14T08:00:22.108Z,9.18
2023-12-14T08:02:48.605Z,9.90
2023-12-14T08:05:15.220Z,9.82
2023-12-14T08:07:41.853Z,10.18
2023-12-14T08:10:09.315Z,10.10
2023-12-14T08:12:36.064Z,10.77
2023-12-14T08:15:02.914Z,9.98
2023-12-14T08:17:29.577Z,12.07
2023-12-14T08:19:56.297Z,10.65
2023-12-14T08:22:27.538Z,10.68
2023-12-14T08:24:56.976Z,11.30
2023-12-14T08:27:23.648Z,10.10
2023-12-14T08:29:50.222Z,11.73
2023-12-14T08:32:16.726Z,12.15
2023-12-14T08:34:43.324Z,11.90
2023-12-14T08:37:09.865Z,11.93
2023-12-14T08:39:36.455Z,12.48
2023-12-14T08:42:03.079Z,12.43
2023-12-14T08:44:29.630Z,13.20
2023-12-14T08:46:56.157Z,13.10
2023-12-14T08:49:24.286Z,13.20
2023-12-14T08:51:50.977Z,15.50
2023-12-14T08:54:18.322Z,15.73
2023-12-14T08:56:44.830Z,15.38
2023-12-14T08:59:12.192Z,17.65
2023-12-14T09:01:40.025Z,16.73
2023-12-14T09:04:06.715Z,16.38
2023-12-14T09:06:34.163Z,15.80
2023-12-14T09:09:04.499Z,21.05
2023-12-14T09:11:31.442Z,17.95
2023-12-14T09:13:58.486Z,14.63
2023-12-14T09:16:25.122Z,13.02
2023-12-14T09:18:51.698Z,13.10
2023-12-14T09:21:21.470Z,14.95
2023-12-14T09:23:49.600Z,14.00
2023-12-14T09:26:16.243Z,12.07
2023-12-14T09:28:43.807Z,11.82
2023-12-14T09:31:10.555Z,11.02
2023-12-14T09:33:37.257Z,8.43
2023-12-14T09:36:04.229Z,7.18
2023-12-14T09:38:30.709Z,7.93
2023-12-14T09:40:57.932Z,6.78
2023-12-14T09:43:24.798Z,7.15
2023-12-14T09:45:52.167Z,7.40
2023-12-14T09:48:19.168Z,7.30
2023-12-14T09:50:47.022Z,8.02
2023-12-14T09:53:13.597Z,8.32
2023-12-14T09:55:40.373Z,9.00
2023-12-14T09:58:07.564Z,9.18
2023-12-14T10:00:39.384Z,8.25
2023-12-14T10:03:27.197Z,8.50
2023-12-14T10:05:55.952Z,8.90
2023-12-14T10:08:23.473Z,11.25
2023-12-14T10:10:53.970Z,20.70
2023-12-14T10:13:23.340Z,9.85
2023-12-14T10:15:50.318Z,7.40
2023-12-14T10:18:26.515Z,8.65
2023-12-14T10:20:54.029Z,7.93
2023-12-14T10:23:21.152Z,8.35
2023-12-14T10:25:47.966Z,7.53
2023-12-14T10:28:15.020Z,7.25
2023-12-14T10:30:44.401Z,6.57
2023-12-14T10:33:11.047Z,7.13
2023-12-14T10:35:37.907Z,7.70
2023-12-14T10:38:06.322Z,6.40
2023-12-14T10:40:33.967Z,6.63
2023-12-14T10:43:02.135Z,6.55
2023-12-14T10:45:33.787Z,6.70
2023-12-14T10:48:02.515Z,6.75
2023-12-14T10:50:32.423Z,6.85
2023-12-14T10:53:00.425Z,7.35
2023-12-14T10:55:39.419Z,6.53
2023-12-14T10:58:06.264Z,7.15
2023-12-14T11:00:33.337Z,6.85
2023-12-14T11:03:01.285Z,7.28
2023-12-14T11:05:32.140Z,6.53
2023-12-14T11:08:13.452Z,7.40
2023-12-14T11:10:44.967Z,6.82
2023-12-14T11:13:14.673Z,6.10
2023-12-14T11:15:52.398Z,7.15
2023-12-14T11:18:19.113Z,5.90
2023-12-14T11:20:45.878Z,6.20
2023-12-14T11:23:18.181Z,5.47
2023-12-14T11:25:46.791Z,5.90
2023-12-14T11:28:14.876Z,7.13
2023-12-14T11:30:52.446Z,6.18
2023-12-14T11:33:22.753Z,5.72
2023-12-14T11:35:51.116Z,6.78
2023-12-14T11:38:19.037Z,6.97
2023-12-14T11:40:46.181Z,6.40
2023-12-14T11:43:12.816Z,6.57
2023-12-14T11:45:40.713Z,6.40
2023-12-14T11:48:11.503Z,7.75
2023-12-14T11:50:44.529Z,5.60
2023-12-14T11:55:40.988Z,5.47
2023-12-14T11:58:07.571Z,6.55
2023-12-14T12:00:36.758Z,6.05
2023-12-14T12:03:10.275Z,5.10
2023-12-14T12:05:39.264Z,6.28
2023-12-14T12:08:06.706Z,6.38
2023-12-14T12:10:34.576Z,6.78
2023-12-14T12:13:08.847Z,6.57
2023-12-14T12:15:38.897Z,6.38
2023-12-14T12:18:08.087Z,7.00
2023-12-14T12:20:35.682Z,6.22
2023-12-14T12:23:03.999Z,7.07
2023-12-14T12:25:32.340Z,6.57
2023-12-14T12:27:59.859Z,5.93
2023-12-14T12:30:27.174Z,6.30
2023-12-14T12:32:54.217Z,6.55
2023-12-14T12:35:20.917Z,6.35
2023-12-14T12:37:47.810Z,6.03
2023-12-14T12:40:17.091Z,6.47
2023-12-14T12:42:43.844Z,6.60
2023-12-14T12:45:11.743Z,6.75
2023-12-14T12:47:38.879Z,7.03
2023-12-14T12:50:06.939Z,7.00
2023-12-14T12:52:33.662Z,7.43
2023-12-14T12:55:01.219Z,7.32
2023-12-14T12:57:27.672Z,6.70
2023-12-14T12:59:54.235Z,6.75
2023-12-14T13:02:21.117Z,7.63
2023-12-14T13:04:48.061Z,5.60
2023-12-14T13:07:14.720Z,7.45
2023-12-14T13:09:41.309Z,7.57
2023-12-14T13:12:08.209Z,6.38
2023-12-14T13:14:34.723Z,8.35
2023-12-14T13:17:01.381Z,6.80
2023-12-14T13:19:28.470Z,7.63
2023-12-14T13:21:55.052Z,8.48
2023-12-14T13:24:21.990Z,7.82
2023-12-14T13:26:48.529Z,8.88
2023-12-14T13:29:15.121Z,7.95
2023-12-14T13:31:41.657Z,8.88
2023-12-14T13:34:08.246Z,8.60
2023-12-14T13:36:35.768Z,10.10
2023-12-14T13:39:03.185Z,10.98
2023-12-14T13:41:41.905Z,10.55
2023-12-14T13:44:11.845Z,10.82
2023-12-14T13:46:38.415Z,10.60
2023-12-14T13:49:04.993Z,9.38
2023-12-14T13:51:31.571Z,8.23
2023-12-14T13:53:58.171Z,9.25
2023-12-14T13:56:24.741Z,9.27
2023-12-14T13:58:51.980Z,9.07
2023-12-14T14:01:18.704Z,9.38
2023-12-14T14:03:47.829Z,11.18
2023-12-14T14:06:17.892Z,10.05
2023-12-14T14:08:44.521Z,9.20
2023-12-14T14:11:11.432Z,8.05
2023-12-14T14:13:38.259Z,8.90
2023-12-14T14:16:06.246Z,9.43
2023-12-14T14:18:32.929Z,9.48
2023-12-14T14:20:59.922Z,9.27
2023-12-14T14:23:26.558Z,9.00
2023-12-14T14:25:56.162Z,9.95
2023-12-14T14:28:25.728Z,9.93
2023-12-14T14:30:53.358Z,8.75
2023-12-14T14:33:20.633Z,9.80
2023-12-14T14:35:47.527Z,8.48
2023-12-14T14:38:14.874Z,9.18
2023-12-14T14:40:43.364Z,8.38
2023-12-14T14:43:10.620Z,8.93
2023-12-14T14:45:38.891Z,8.10
2023-12-14T14:48:09.748Z,9.45
2023-12-14T14:50:36.810Z,9.15
2023-12-14T14:53:03.820Z,8.07
2023-12-14T14:55:30.925Z,8.90
2023-12-14T14:57:57.982Z,7.40
2023-12-14T15:00:24.622Z,9.05
2023-12-14T15:02:51.255Z,7.97
2023-12-14T15:05:18.033Z,6.90
2023-12-14T15:07:44.602Z,7.55
2023-12-14T15:10:11.436Z,6.75
2023-12-14T15:12:38.257Z,6.55
2023-12-14T15:15:08.459Z,6.10
2023-12-14T15:17:37.013Z,6.35
2023-12-14T15:20:04.997Z,6.85
2023-12-14T15:22:31.843Z,6.75
2023-12-14T15:24:58.472Z,6.72
2023-12-14T15:27:26.059Z,6.45
2023-12-14T15:29:54.624Z,6.47
2023-12-14T15:32:21.354Z,7.10
2023-12-14T15:34:47.968Z,7.18
2023-12-14T15:37:14.540Z,7.00
2023-12-14T15:39:41.128Z,8.00
2023-12-14T15:42:07.817Z,6.35
2023-12-14T15:44:34.270Z,6.90
2023-12-14T15:47:01.196Z,6.95
2023-12-14T15:49:27.707Z,8.05
2023-12-14T15:51:54.447Z,9.35
2023-12-14T15:54:20.904Z,6.03
2023-12-14T15:56:47.390Z,6.95
2023-12-14T15:59:13.890Z,6.22
2023-12-14T16:01:42.973Z,7.50
2023-12-14T16:04:10.981Z,8.13
2023-12-14T16:06:37.499Z,8.85
2023-12-14T16:09:04.078Z,7.70
2023-12-14T16:11:30.632Z,9.88
2023-12-14T16:14:00.019Z,9.10
2023-12-14T16:16:26.772Z,8.60
2023-12-14T16:18:53.251Z,9.38
2023-12-14T16:21:19.732Z,8.90
2023-12-14T16:23:46.254Z,8.80
2023-12-14T16:26:13.000Z,8.18
2023-12-14T16:28:40.227Z,7.47
2023-12-14T16:31:08.311Z,8.50
2023-12-14T16:33:38.895Z,8.65
2023-12-14T16:36:13.031Z,9.13
2023-12-14T16:38:39.717Z,7.95
2023-12-14T16:41:06.279Z,7.93
2023-12-14T16:43:33.611Z,7.35
2023-12-14T16:46:00.300Z,8.18
2023-12-14T16:48:26.995Z,8.50
2023-12-14T16:50:56.802Z,8.02
2023-12-14T16:53:24.693Z,8.05
2023-12-14T16:55:59.278Z,11.68
2023-12-14T16:58:26.424Z,9.30
2023-12-14T17:00:56.502Z,8.10
2023-12-14T17:03:23.396Z,8.00
2023-12-14T17:05:50.307Z,9.05
2023-12-14T17:08:16.972Z,7.95
2023-12-14T17:10:43.471Z,8.30
2023-12-14T17:13:09.995Z,8.90
2023-12-14T17:15:36.449Z,8.77
2023-12-14T17:18:03.074Z,8.45
2023-12-14T17:20:29.561Z,9.35
2023-12-14T17:22:56.121Z,9.32
2023-12-14T17:25:22.681Z,9.35
2023-12-14T17:27:49.168Z,9.25
2023-12-14T17:30:15.847Z,8.60
2023-12-14T17:32:42.806Z,9.05
2023-12-14T17:35:09.666Z,7.78
2023-12-14T17:37:36.374Z,9.00
2023-12-14T17:40:03.673Z,8.38
2023-12-14T17:42:30.144Z,9.05
2023-12-14T17:44:56.720Z,9.52
2023-12-14T17:47:23.313Z,8.65
2023-12-14T17:49:49.797Z,10.00
2023-12-14T17:52:16.463Z,9.02
2023-12-14T17:54:42.957Z,9.27
2023-12-14T17:57:09.413Z,10.15
2023-12-14T17:59:35.854Z,9.70
2023-12-14T18:02:02.404Z,9.07
2023-12-14T18:04:28.977Z,10.02
2023-12-14T18:06:55.515Z,11.88
2023-12-14T18:09:22.022Z,10.18
2023-12-14T18:11:49.260Z,11.02
2023-12-14T18:14:15.983Z,10.45
2023-12-14T18:16:43.881Z,14.15
2023-12-14T18:19:11.813Z,13.02
2023-12-14T18:21:42.809Z,11.40
2023-12-14T18:24:13.473Z,10.68
2023-12-14T18:26:41.478Z,10.10
2023-12-14T18:29:08.799Z,9.65
2023-12-14T18:31:43.621Z,9.60
2023-12-14T18:34:11.647Z,10.80
2023-12-14T18:36:42.785Z,10.30
2023-12-14T18:39:13.878Z,11.40
2023-12-14T18:42:08.831Z,10.50
2023-12-14T18:44:34.821Z,14.20
2023-12-14T18:47:40.762Z,13.13
2023-12-14T18:50:09.002Z,14.63
2023-12-14T18:52:42.411Z,13.68
2023-12-14T18:55:11.293Z,15.52
2023-12-14T18:57:39.551Z,16.17
2023-12-14T19:00:07.848Z,21.88
2023-12-14T19:02:38.782Z,22.73
2023-12-14T19:05:06.203Z,22.08
2023-12-14T19:07:32.930Z,20.38
2023-12-14T19:09:59.556Z,16.05
2023-12-14T19:12:26.036Z,14.40
2023-12-14T19:14:52.693Z,13.20
2023-12-14T19:17:19.248Z,12.10
2023-12-14T19:19:45.984Z,11.82
2023-12-14T19:22:12.735Z,11.82
2023-12-14T19:24:39.854Z,12.00
2023-12-14T19:27:06.392Z,11.10
2023-12-14T19:29:32.982Z,11.15
2023-12-14T19:31:59.519Z,10.57
2023-12-14T19:34:26.105Z,12.27
2023-12-14T19:36:52.654Z,10.10
2023-12-14T19:39:20.004Z,11.45
2023-12-14T19:41:46.551Z,11.48
2023-12-14T19:44:13.049Z,10.02
2023-12-14T19:46:39.489Z,10.95
2023-12-14T19:49:06.213Z,11.30
2023-12-14T19:51:36.924Z,11.07
2023-12-14T19:54:03.474Z,10.90
2023-12-14T19:56:29.948Z,10.77
2023-12-14T19:58:56.660Z,12.70
2023-12-14T20:01:23.594Z,10.75
2023-12-14T20:03:50.085Z,9.65
2023-12-14T20:06:24.340Z,9.70
2023-12-14T20:08:50.899Z,9.57
2023-12-14T20:11:18.502Z,10.98
2023-12-14T20:13:45.355Z,9.73
2023-12-14T20:16:12.064Z,16.67
2023-12-14T20:18:39.251Z,9.95
2023-12-14T20:21:05.956Z,9.55
2023-12-14T20:23:32.623Z,10.73
2023-12-14T20:25:59.182Z,10.55
2023-12-14T20:28:25.908Z,9.55
2023-12-14T20:30:52.496Z,9.35
2023-12-14T20:33:19.040Z,10.32
2023-12-14T20:35:45.865Z,12.32
2023-12-14T20:38:12.735Z,12.10
2023-12-14T20:40:39.254Z,11.40
2023-12-14T20:43:05.986Z,12.43
2023-12-14T20:45:32.686Z,11.50
2023-12-14T20:47:59.223Z,11.00
2023-12-14T20:50:29.091Z,10.50
2023-12-14T20:52:55.767Z,10.93
2023-12-14T20:55:22.464Z,10.20
2023-12-14T20:57:49.012Z,10.43
2023-12-14T21:00:15.681Z,9.98
2023-12-14T21:02:42.166Z,9.93
2023-12-14T21:05:09.438Z,11.27
2023-12-14T21:07:36.414Z,9.80
2023-12-14T21:10:04.115Z,9.35
2023-12-14T21:12:30.712Z,9.25
2023-12-14T21:14:57.259Z,10.27
2023-12-14T21:17:23.854Z,9.10
2023-12-14T21:19:53.893Z,9.93
2023-12-14T21:22:20.687Z,9.98
2023-12-14T21:24:49.941Z,10.57
2023-12-14T21:27:35.233Z,9.75
2023-12-14T21:30:01.915Z,9.60
2023-12-14T21:32:29.658Z,9.73
2023-12-14T21:34:56.256Z,9.25
2023-12-14T21:37:23.097Z,9.45
2023-12-14T21:39:49.647Z,8.75
2023-12-14T21:42:16.405Z,9.90
2023-12-14T21:44:42.879Z,11.23
2023-12-14T21:47:09.376Z,9.65
2023-12-14T21:49:35.983Z,9.85
2023-12-14T21:52:02.489Z,10.50
2023-12-14T21:54:29.002Z,11.52
2023-12-14T21:56:55.475Z,10.30
2023-12-14T21:59:22.584Z,9.02
2023-12-14T22:01:49.290Z,11.05
2023-12-14T22:04:15.914Z,10.27
2023-12-14T22:06:42.452Z,11.45
2023-12-14T22:09:08.991Z,11.05
2023-12-14T22:11:35.512Z,12.23
2023-12-14T22:14:02.070Z,11.65
2023-12-14T22:16:28.581Z,11.43
2023-12-14T22:18:55.247Z,11.65
2023-12-14T22:21:21.842Z,10.73
2023-12-14T22:23:48.323Z,11.43
2023-12-14T22:26:14.944Z,10.95
2023-12-14T22:28:41.535Z,12.18
2023-12-14T22:31:08.047Z,12.05
2023-12-14T22:33:34.656Z,13.25
2023-12-14T22:36:01.166Z,11.88
2023-12-14T22:38:27.776Z,11.95
2023-12-14T22:40:54.931Z,14.55
2023-12-14T22:43:22.388Z,10.77
2023-12-14T22:45:49.325Z,11.48
2023-12-14T22:48:16.005Z,12.68
2023-12-14T22:50:42.627Z,12.07
2023-12-14T22:53:15.422Z,12.55
2023-12-14T22:55:46.246Z,13.50
2023-12-14T22:58:12.801Z,12.05
2023-12-14T23:00:39.710Z,13.25
2023-12-14T23:03:06.921Z,12.80
2023-12-14T23:05:33.626Z,12.75
2023-12-14T23:08:00.334Z,11.18
2023-12-14T23:10:26.879Z,11.30
2023-12-14T23:12:53.364Z,12.60
2023-12-14T23:15:20.940Z,13.00
2023-12-14T23:17:47.573Z,11.63
2023-12-14T23:20:14.208Z,11.43
2023-12-14T23:22:40.688Z,11.25
2023-12-14T23:25:07.624Z,12.75
2023-12-14T23:27:34.399Z,13.52
2023-12-14T23:30:01.087Z,12.05
2023-12-14T23:32:27.712Z,12.52
2023-12-14T23:34:54.323Z,12.70
2023-12-14T23:37:21.032Z,12.50
2023-12-14T23:39:47.550Z,12.35
2023-12-14T23:42:14.234Z,11.90
2023-12-14T23:44:40.867Z,13.10
2023-12-14T23:47:07.773Z,13.00
2023-12-14T23:49:34.324Z,13.88
2023-12-14T23:52:00.897Z,13.00
2023-12-14T23:54:27.422Z,12.70
2023-12-14T23:56:53.934Z,14.18
2023-12-14T23:59:20.497Z,12.95
